sensor_id;sensor_type;location;lat;lon;timestamp;P1;durP1;ratioP1;P2;durP2;ratioP2
52067;SDS011;60237;52.338;21.228;2023-07-29T00:01:35;702.17;;;645.45;;
52067;SDS011;60237;52.338;21.228;2023-07-29T00:04:02;727.30;;;666.20;;
52067;SDS011;60237;52.338;21.228;2023-07-29T00:06:29;721.30;;;658.35;;
52067;SDS011;60237;52.338;21.228;2023-07-29T00:08:55;718.53;;;658.10;;
52067;SDS011;60237;52.338;21.228;2023-07-29T00:11:22;715.97;;;656.92;;
52067;SDS011;60237;52.338;21.228;2023-07-29T00:13:49;705.67;;;647.15;;
52067;SDS011;60237;52.338;21.228;2023-07-29T00:16:17;707.75;;;649.30;;
52067;SDS011;60237;52.338;21.228;2023-07-29T00:18:43;710.13;;;650.92;;
52067;SDS011;60237;52.338;21.228;2023-07-29T00:21:10;696.05;;;637.63;;
52067;SDS011;60237;52.338;21.228;2023-07-29T00:23:37;697.33;;;638.33;;
52067;SDS011;60237;52.338;21.228;2023-07-29T00:26:03;637.97;;;587.05;;
52067;SDS011;60237;52.338;21.228;2023-07-29T00:28:30;557.00;;;512.47;;
52067;SDS011;60237;52.338;21.228;2023-07-29T00:30:58;565.42;;;520.35;;
52067;SDS011;60237;52.338;21.228;2023-07-29T00:33:25;570.38;;;522.25;;
52067;SDS011;60237;52.338;21.228;2023-07-29T00:35:52;521.17;;;479.88;;
52067;SDS011;60237;52.338;21.228;2023-07-29T00:38:19;510.80;;;472.58;;
52067;SDS011;60237;52.338;21.228;2023-07-29T00:40:46;484.02;;;448.33;;
52067;SDS011;60237;52.338;21.228;2023-07-29T00:43:14;478.67;;;442.83;;
52067;SDS011;60237;52.338;21.228;2023-07-29T00:45:40;458.10;;;423.00;;
52067;SDS011;60237;52.338;21.228;2023-07-29T00:48:09;447.65;;;414.77;;
52067;SDS011;60237;52.338;21.228;2023-07-29T00:50:36;458.33;;;424.80;;
52067;SDS011;60237;52.338;21.228;2023-07-29T00:53:02;488.35;;;451.73;;
52067;SDS011;60237;52.338;21.228;2023-07-29T00:55:29;494.52;;;456.45;;
52067;SDS011;60237;52.338;21.228;2023-07-29T00:57:55;490.10;;;452.15;;
52067;SDS011;60237;52.338;21.228;2023-07-29T01:00:22;505.23;;;465.77;;
52067;SDS011;60237;52.338;21.228;2023-07-29T01:02:49;454.13;;;421.13;;
52067;SDS011;60237;52.338;21.228;2023-07-29T01:05:16;462.88;;;429.17;;
52067;SDS011;60237;52.338;21.228;2023-07-29T01:10:19;384.20;;;356.73;;
52067;SDS011;60237;52.338;21.228;2023-07-29T01:12:56;414.20;;;383.48;;
52067;SDS011;60237;52.338;21.228;2023-07-29T01:15:29;409.63;;;377.25;;
52067;SDS011;60237;52.338;21.228;2023-07-29T01:20:24;383.08;;;354.83;;
52067;SDS011;60237;52.338;21.228;2023-07-29T01:22:51;371.65;;;344.65;;
52067;SDS011;60237;52.338;21.228;2023-07-29T01:25:18;349.02;;;323.38;;
52067;SDS011;60237;52.338;21.228;2023-07-29T01:27:45;353.77;;;327.90;;
52067;SDS011;60237;52.338;21.228;2023-07-29T01:30:12;351.95;;;326.83;;
52067;SDS011;60237;52.338;21.228;2023-07-29T01:32:43;254.50;;;235.20;;
52067;SDS011;60237;52.338;21.228;2023-07-29T01:35:15;201.85;;;186.15;;
52067;SDS011;60237;52.338;21.228;2023-07-29T01:37:48;206.63;;;192.10;;
52067;SDS011;60237;52.338;21.228;2023-07-29T01:40:15;212.05;;;194.73;;
52067;SDS011;60237;52.338;21.228;2023-07-29T01:42:43;209.52;;;191.48;;
52067;SDS011;60237;52.338;21.228;2023-07-29T01:45:11;204.57;;;187.48;;
52067;SDS011;60237;52.338;21.228;2023-07-29T01:47:38;213.60;;;197.80;;
52067;SDS011;60237;52.338;21.228;2023-07-29T01:50:07;212.45;;;198.40;;
52067;SDS011;60237;52.338;21.228;2023-07-29T01:52:34;233.15;;;214.32;;
52067;SDS011;60237;52.338;21.228;2023-07-29T01:55:01;242.15;;;224.00;;
52067;SDS011;60237;52.338;21.228;2023-07-29T01:57:28;256.20;;;233.65;;
52067;SDS011;60237;52.338;21.228;2023-07-29T01:59:54;209.90;;;193.65;;
52067;SDS011;60237;52.338;21.228;2023-07-29T02:02:21;196.80;;;181.60;;
52067;SDS011;60237;52.338;21.228;2023-07-29T02:04:48;166.05;;;153.25;;
52067;SDS011;60237;52.338;21.228;2023-07-29T02:07:18;184.27;;;168.48;;
52067;SDS011;60237;52.338;21.228;2023-07-29T02:09:45;163.63;;;149.23;;
52067;SDS011;60237;52.338;21.228;2023-07-29T02:12:12;145.15;;;134.15;;
52067;SDS011;60237;52.338;21.228;2023-07-29T02:14:38;155.82;;;140.90;;
52067;SDS011;60237;52.338;21.228;2023-07-29T02:17:05;173.38;;;139.45;;
52067;SDS011;60237;52.338;21.228;2023-07-29T02:19:32;156.77;;;133.95;;
52067;SDS011;60237;52.338;21.228;2023-07-29T02:21:59;188.25;;;130.77;;
52067;SDS011;60237;52.338;21.228;2023-07-29T02:24:25;224.27;;;138.70;;
52067;SDS011;60237;52.338;21.228;2023-07-29T02:26:52;220.80;;;133.05;;
52067;SDS011;60237;52.338;21.228;2023-07-29T02:29:19;160.35;;;130.43;;
52067;SDS011;60237;52.338;21.228;2023-07-29T02:31:45;217.73;;;135.20;;
52067;SDS011;60237;52.338;21.228;2023-07-29T02:34:12;267.90;;;136.80;;
52067;SDS011;60237;52.338;21.228;2023-07-29T02:36:39;239.95;;;134.07;;
52067;SDS011;60237;52.338;21.228;2023-07-29T02:39:06;171.55;;;133.02;;
52067;SDS011;60237;52.338;21.228;2023-07-29T02:41:33;143.93;;;129.77;;
52067;SDS011;60237;52.338;21.228;2023-07-29T02:43:59;213.45;;;152.25;;
52067;SDS011;60237;52.338;21.228;2023-07-29T02:46:26;163.02;;;147.27;;
52067;SDS011;60237;52.338;21.228;2023-07-29T02:48:53;176.20;;;144.75;;
52067;SDS011;60237;52.338;21.228;2023-07-29T02:51:19;167.52;;;148.95;;
52067;SDS011;60237;52.338;21.228;2023-07-29T02:53:46;160.43;;;146.13;;
52067;SDS011;60237;52.338;21.228;2023-07-29T02:56:13;161.27;;;146.73;;
52067;SDS011;60237;52.338;21.228;2023-07-29T02:58:40;168.20;;;151.73;;
52067;SDS011;60237;52.338;21.228;2023-07-29T03:01:07;166.65;;;149.02;;
52067;SDS011;60237;52.338;21.228;2023-07-29T03:03:34;206.88;;;154.30;;
52067;SDS011;60237;52.338;21.228;2023-07-29T03:06:06;155.70;;;141.48;;
52067;SDS011;60237;52.338;21.228;2023-07-29T03:08:33;152.68;;;139.35;;
52067;SDS011;60237;52.338;21.228;2023-07-29T03:11:05;148.23;;;135.93;;
52067;SDS011;60237;52.338;21.228;2023-07-29T03:13:31;148.57;;;134.15;;
52067;SDS011;60237;52.338;21.228;2023-07-29T03:16:32;160.75;;;133.85;;
52067;SDS011;60237;52.338;21.228;2023-07-29T03:18:54;155.73;;;135.30;;
52067;SDS011;60237;52.338;21.228;2023-07-29T03:21:21;140.02;;;124.95;;
52067;SDS011;60237;52.338;21.228;2023-07-29T03:23:47;179.63;;;122.00;;
52067;SDS011;60237;52.338;21.228;2023-07-29T03:26:14;282.75;;;125.35;;
52067;SDS011;60237;52.338;21.228;2023-07-29T03:28:41;430.23;;;129.50;;
52067;SDS011;60237;52.338;21.228;2023-07-29T03:31:08;200.57;;;118.53;;
52067;SDS011;60237;52.338;21.228;2023-07-29T03:33:35;165.38;;;115.40;;
52067;SDS011;60237;52.338;21.228;2023-07-29T03:36:02;184.30;;;111.78;;
52067;SDS011;60237;52.338;21.228;2023-07-29T03:38:29;224.18;;;112.40;;
52067;SDS011;60237;52.338;21.228;2023-07-29T03:40:55;139.57;;;104.68;;
52067;SDS011;60237;52.338;21.228;2023-07-29T03:43:22;172.70;;;111.70;;
52067;SDS011;60237;52.338;21.228;2023-07-29T03:45:49;183.65;;;112.00;;
52067;SDS011;60237;52.338;21.228;2023-07-29T03:48:16;184.00;;;117.97;;
52067;SDS011;60237;52.338;21.228;2023-07-29T03:50:43;119.68;;;106.22;;
52067;SDS011;60237;52.338;21.228;2023-07-29T03:53:09;134.10;;;109.45;;
52067;SDS011;60237;52.338;21.228;2023-07-29T03:55:36;117.90;;;106.70;;
52067;SDS011;60237;52.338;21.228;2023-07-29T03:58:03;143.23;;;112.43;;
52067;SDS011;60237;52.338;21.228;2023-07-29T04:00:29;239.07;;;124.70;;
52067;SDS011;60237;52.338;21.228;2023-07-29T04:02:56;282.70;;;122.90;;
52067;SDS011;60237;52.338;21.228;2023-07-29T04:05:23;213.98;;;111.40;;
52067;SDS011;60237;52.338;21.228;2023-07-29T04:07:49;123.97;;;107.28;;
52067;SDS011;60237;52.338;21.228;2023-07-29T04:10:16;343.88;;;121.57;;
52067;SDS011;60237;52.338;21.228;2023-07-29T04:12:43;251.77;;;123.28;;
52067;SDS011;60237;52.338;21.228;2023-07-29T04:15:10;196.32;;;112.05;;
52067;SDS011;60237;52.338;21.228;2023-07-29T04:17:36;371.90;;;114.22;;
52067;SDS011;60237;52.338;21.228;2023-07-29T04:20:03;280.80;;;100.60;;
52067;SDS011;60237;52.338;21.228;2023-07-29T04:22:33;307.55;;;103.85;;
52067;SDS011;60237;52.338;21.228;2023-07-29T04:25:00;280.00;;;100.40;;
52067;SDS011;60237;52.338;21.228;2023-07-29T04:27:26;412.75;;;104.07;;
52067;SDS011;60237;52.338;21.228;2023-07-29T04:29:53;197.60;;;87.88;;
52067;SDS011;60237;52.338;21.228;2023-07-29T04:32:20;402.55;;;99.78;;
52067;SDS011;60237;52.338;21.228;2023-07-29T04:34:47;413.95;;;98.65;;
52067;SDS011;60237;52.338;21.228;2023-07-29T04:37:13;291.10;;;87.18;;
52067;SDS011;60237;52.338;21.228;2023-07-29T04:39:40;340.55;;;146.15;;
52067;SDS011;60237;52.338;21.228;2023-07-29T04:42:07;228.32;;;92.45;;
52067;SDS011;60237;52.338;21.228;2023-07-29T04:44:34;299.38;;;89.32;;
52067;SDS011;60237;52.338;21.228;2023-07-29T04:47:01;184.43;;;83.40;;
52067;SDS011;60237;52.338;21.228;2023-07-29T04:49:28;249.15;;;91.07;;
52067;SDS011;60237;52.338;21.228;2023-07-29T04:51:54;129.07;;;87.10;;
52067;SDS011;60237;52.338;21.228;2023-07-29T04:54:21;121.72;;;81.95;;
52067;SDS011;60237;52.338;21.228;2023-07-29T04:56:48;124.40;;;89.30;;
52067;SDS011;60237;52.338;21.228;2023-07-29T04:59:16;161.88;;;85.75;;
52067;SDS011;60237;52.338;21.228;2023-07-29T05:01:43;157.52;;;85.22;;
52067;SDS011;60237;52.338;21.228;2023-07-29T05:04:10;197.35;;;177.80;;
52067;SDS011;60237;52.338;21.228;2023-07-29T05:06:37;217.73;;;172.65;;
52067;SDS011;60237;52.338;21.228;2023-07-29T05:09:14;171.52;;;153.32;;
52067;SDS011;60237;52.338;21.228;2023-07-29T05:11:42;158.15;;;145.75;;
52067;SDS011;60237;52.338;21.228;2023-07-29T05:14:12;172.02;;;157.55;;
52067;SDS011;60237;52.338;21.228;2023-07-29T05:16:39;160.38;;;145.43;;
52067;SDS011;60237;52.338;21.228;2023-07-29T05:19:06;167.32;;;153.27;;
52067;SDS011;60237;52.338;21.228;2023-07-29T05:21:32;177.93;;;160.75;;
52067;SDS011;60237;52.338;21.228;2023-07-29T05:24:00;150.98;;;138.85;;
52067;SDS011;60237;52.338;21.228;2023-07-29T05:26:26;158.90;;;145.70;;
52067;SDS011;60237;52.338;21.228;2023-07-29T05:28:53;146.35;;;135.02;;
52067;SDS011;60237;52.338;21.228;2023-07-29T05:31:20;155.45;;;142.30;;
52067;SDS011;60237;52.338;21.228;2023-07-29T05:33:46;157.60;;;144.77;;
52067;SDS011;60237;52.338;21.228;2023-07-29T05:36:14;153.60;;;141.30;;
52067;SDS011;60237;52.338;21.228;2023-07-29T05:38:41;155.38;;;143.23;;
52067;SDS011;60237;52.338;21.228;2023-07-29T05:41:07;167.25;;;154.40;;
52067;SDS011;60237;52.338;21.228;2023-07-29T05:43:34;179.00;;;165.07;;
52067;SDS011;60237;52.338;21.228;2023-07-29T05:46:01;212.27;;;194.88;;
52067;SDS011;60237;52.338;21.228;2023-07-29T05:48:27;235.45;;;214.60;;
52067;SDS011;60237;52.338;21.228;2023-07-29T05:50:54;239.35;;;221.68;;
52067;SDS011;60237;52.338;21.228;2023-07-29T05:53:21;256.70;;;236.95;;
52067;SDS011;60237;52.338;21.228;2023-07-29T05:55:47;251.15;;;230.48;;
52067;SDS011;60237;52.338;21.228;2023-07-29T05:58:14;272.85;;;250.27;;
52067;SDS011;60237;52.338;21.228;2023-07-29T06:00:40;308.58;;;280.70;;
52067;SDS011;60237;52.338;21.228;2023-07-29T06:03:07;306.65;;;283.75;;
52067;SDS011;60237;52.338;21.228;2023-07-29T06:05:34;313.63;;;292.20;;
52067;SDS011;60237;52.338;21.228;2023-07-29T06:08:02;331.30;;;306.55;;
52067;SDS011;60237;52.338;21.228;2023-07-29T06:10:28;356.55;;;329.80;;
52067;SDS011;60237;52.338;21.228;2023-07-29T06:12:55;387.05;;;357.88;;
52067;SDS011;60237;52.338;21.228;2023-07-29T06:15:22;377.58;;;349.05;;
52067;SDS011;60237;52.338;21.228;2023-07-29T06:17:49;385.58;;;355.63;;
52067;SDS011;60237;52.338;21.228;2023-07-29T06:20:16;353.55;;;328.42;;
52067;SDS011;60237;52.338;21.228;2023-07-29T06:22:43;330.42;;;304.33;;
52067;SDS011;60237;52.338;21.228;2023-07-29T06:25:10;293.65;;;270.83;;
52067;SDS011;60237;52.338;21.228;2023-07-29T06:27:37;282.90;;;259.70;;
52067;SDS011;60237;52.338;21.228;2023-07-29T06:30:04;280.30;;;260.52;;
52067;SDS011;60237;52.338;21.228;2023-07-29T06:32:31;279.05;;;259.27;;
52067;SDS011;60237;52.338;21.228;2023-07-29T06:34:58;285.25;;;263.25;;
52067;SDS011;60237;52.338;21.228;2023-07-29T06:37:24;279.27;;;257.80;;
52067;SDS011;60237;52.338;21.228;2023-07-29T06:39:51;281.20;;;259.33;;
52067;SDS011;60237;52.338;21.228;2023-07-29T06:42:18;273.20;;;253.02;;
52067;SDS011;60237;52.338;21.228;2023-07-29T06:44:44;283.10;;;260.15;;
52067;SDS011;60237;52.338;21.228;2023-07-29T06:47:12;280.75;;;256.67;;
52067;SDS011;60237;52.338;21.228;2023-07-29T06:49:39;265.92;;;245.73;;
52067;SDS011;60237;52.338;21.228;2023-07-29T06:52:05;265.58;;;244.60;;
52067;SDS011;60237;52.338;21.228;2023-07-29T06:54:32;273.92;;;249.27;;
52067;SDS011;60237;52.338;21.228;2023-07-29T06:56:59;254.80;;;235.45;;
52067;SDS011;60237;52.338;21.228;2023-07-29T06:59:25;263.25;;;242.15;;
52067;SDS011;60237;52.338;21.228;2023-07-29T07:01:52;262.05;;;240.25;;
52067;SDS011;60237;52.338;21.228;2023-07-29T07:04:19;263.50;;;244.15;;
52067;SDS011;60237;52.338;21.228;2023-07-29T07:06:46;262.25;;;240.85;;
52067;SDS011;60237;52.338;21.228;2023-07-29T07:09:12;263.27;;;242.60;;
52067;SDS011;60237;52.338;21.228;2023-07-29T07:11:39;236.38;;;218.18;;
52067;SDS011;60237;52.338;21.228;2023-07-29T07:14:08;255.32;;;236.30;;
52067;SDS011;60237;52.338;21.228;2023-07-29T07:16:35;249.68;;;229.18;;
52067;SDS011;60237;52.338;21.228;2023-07-29T07:19:03;245.10;;;225.98;;
52067;SDS011;60237;52.338;21.228;2023-07-29T07:21:30;247.93;;;224.93;;
52067;SDS011;60237;52.338;21.228;2023-07-29T07:23:59;238.60;;;221.10;;
52067;SDS011;60237;52.338;21.228;2023-07-29T07:26:25;226.65;;;208.93;;
52067;SDS011;60237;52.338;21.228;2023-07-29T07:28:52;234.43;;;216.73;;
52067;SDS011;60237;52.338;21.228;2023-07-29T07:31:18;233.52;;;214.85;;
52067;SDS011;60237;52.338;21.228;2023-07-29T07:33:46;252.63;;;232.32;;
52067;SDS011;60237;52.338;21.228;2023-07-29T07:36:12;235.27;;;217.13;;
52067;SDS011;60237;52.338;21.228;2023-07-29T07:38:39;227.65;;;209.20;;
52067;SDS011;60237;52.338;21.228;2023-07-29T07:41:06;228.20;;;211.50;;
52067;SDS011;60237;52.338;21.228;2023-07-29T07:43:32;221.32;;;204.82;;
52067;SDS011;60237;52.338;21.228;2023-07-29T07:46:00;226.43;;;207.25;;
52067;SDS011;60237;52.338;21.228;2023-07-29T07:48:27;218.18;;;200.50;;
52067;SDS011;60237;52.338;21.228;2023-07-29T07:50:54;221.55;;;205.35;;
52067;SDS011;60237;52.338;21.228;2023-07-29T07:53:20;224.35;;;207.25;;
52067;SDS011;60237;52.338;21.228;2023-07-29T07:55:47;225.70;;;208.35;;
52067;SDS011;60237;52.338;21.228;2023-07-29T07:58:13;217.90;;;200.57;;
52067;SDS011;60237;52.338;21.228;2023-07-29T08:00:40;224.80;;;202.38;;
52067;SDS011;60237;52.338;21.228;2023-07-29T08:03:07;197.48;;;182.82;;
52067;SDS011;60237;52.338;21.228;2023-07-29T08:05:33;199.23;;;185.13;;
52067;SDS011;60237;52.338;21.228;2023-07-29T08:08:00;200.00;;;185.18;;
52067;SDS011;60237;52.338;21.228;2023-07-29T08:10:27;184.63;;;171.52;;
52067;SDS011;60237;52.338;21.228;2023-07-29T08:12:53;182.77;;;168.85;;
52067;SDS011;60237;52.338;21.228;2023-07-29T08:15:20;183.38;;;168.65;;
52067;SDS011;60237;52.338;21.228;2023-07-29T08:17:47;182.15;;;168.75;;
52067;SDS011;60237;52.338;21.228;2023-07-29T08:20:13;177.05;;;164.35;;
52067;SDS011;60237;52.338;21.228;2023-07-29T08:22:40;176.27;;;163.23;;
52067;SDS011;60237;52.338;21.228;2023-07-29T08:25:09;176.30;;;161.43;;
52067;SDS011;60237;52.338;21.228;2023-07-29T08:27:36;173.70;;;158.30;;
52067;SDS011;60237;52.338;21.228;2023-07-29T08:30:02;167.77;;;155.13;;
52067;SDS011;60237;52.338;21.228;2023-07-29T08:32:29;170.25;;;157.20;;
52067;SDS011;60237;52.338;21.228;2023-07-29T08:34:56;167.15;;;155.23;;
52067;SDS011;60237;52.338;21.228;2023-07-29T08:37:22;163.32;;;150.85;;
52067;SDS011;60237;52.338;21.228;2023-07-29T08:39:49;169.02;;;155.00;;
52067;SDS011;60237;52.338;21.228;2023-07-29T08:42:16;146.10;;;135.57;;
52067;SDS011;60237;52.338;21.228;2023-07-29T08:44:45;151.80;;;141.02;;
52067;SDS011;60237;52.338;21.228;2023-07-29T08:47:15;146.05;;;133.15;;
52067;SDS011;60237;52.338;21.228;2023-07-29T08:49:43;148.32;;;136.10;;
52067;SDS011;60237;52.338;21.228;2023-07-29T08:52:11;142.63;;;131.70;;
52067;SDS011;60237;52.338;21.228;2023-07-29T08:54:38;149.07;;;135.18;;
52067;SDS011;60237;52.338;21.228;2023-07-29T08:57:06;134.20;;;124.22;;
52067;SDS011;60237;52.338;21.228;2023-07-29T08:59:32;135.90;;;126.05;;
52067;SDS011;60237;52.338;21.228;2023-07-29T09:01:59;144.75;;;133.35;;
52067;SDS011;60237;52.338;21.228;2023-07-29T09:04:26;134.38;;;123.78;;
52067;SDS011;60237;52.338;21.228;2023-07-29T09:06:52;147.65;;;136.02;;
52067;SDS011;60237;52.338;21.228;2023-07-29T09:09:20;147.23;;;135.52;;
52067;SDS011;60237;52.338;21.228;2023-07-29T09:11:47;153.50;;;140.82;;
52067;SDS011;60237;52.338;21.228;2023-07-29T09:14:14;157.77;;;147.10;;
52067;SDS011;60237;52.338;21.228;2023-07-29T09:16:41;158.27;;;145.85;;
52067;SDS011;60237;52.338;21.228;2023-07-29T09:19:07;158.27;;;144.68;;
52067;SDS011;60237;52.338;21.228;2023-07-29T09:21:34;161.00;;;144.43;;
52067;SDS011;60237;52.338;21.228;2023-07-29T09:24:04;148.82;;;137.35;;
52067;SDS011;60237;52.338;21.228;2023-07-29T09:26:31;149.48;;;137.70;;
52067;SDS011;60237;52.338;21.228;2023-07-29T09:28:59;140.02;;;129.18;;
52067;SDS011;60237;52.338;21.228;2023-07-29T09:31:26;147.75;;;135.68;;
52067;SDS011;60237;52.338;21.228;2023-07-29T09:33:59;141.90;;;130.63;;
52067;SDS011;60237;52.338;21.228;2023-07-29T09:36:27;140.93;;;130.52;;
52067;SDS011;60237;52.338;21.228;2023-07-29T09:38:54;139.50;;;129.30;;
52067;SDS011;60237;52.338;21.228;2023-07-29T09:41:24;143.68;;;132.40;;
52067;SDS011;60237;52.338;21.228;2023-07-29T09:43:58;141.85;;;130.48;;
52067;SDS011;60237;52.338;21.228;2023-07-29T09:46:25;141.18;;;131.05;;
52067;SDS011;60237;52.338;21.228;2023-07-29T09:48:53;141.20;;;129.68;;
52067;SDS011;60237;52.338;21.228;2023-07-29T09:51:20;145.38;;;134.65;;
52067;SDS011;60237;52.338;21.228;2023-07-29T09:53:48;148.93;;;138.30;;
52067;SDS011;60237;52.338;21.228;2023-07-29T09:56:15;144.88;;;133.82;;
52067;SDS011;60237;52.338;21.228;2023-07-29T09:58:45;149.20;;;137.95;;
52067;SDS011;60237;52.338;21.228;2023-07-29T10:01:12;157.00;;;143.40;;
52067;SDS011;60237;52.338;21.228;2023-07-29T10:03:47;159.95;;;144.63;;
52067;SDS011;60237;52.338;21.228;2023-07-29T10:06:15;159.63;;;146.07;;
52067;SDS011;60237;52.338;21.228;2023-07-29T10:08:42;148.55;;;138.32;;
52067;SDS011;60237;52.338;21.228;2023-07-29T10:11:09;149.15;;;139.18;;
52067;SDS011;60237;52.338;21.228;2023-07-29T10:13:37;147.88;;;136.98;;
52067;SDS011;60237;52.338;21.228;2023-07-29T10:16:04;138.23;;;127.88;;
52067;SDS011;60237;52.338;21.228;2023-07-29T10:18:32;145.23;;;131.90;;
52067;SDS011;60237;52.338;21.228;2023-07-29T10:20:59;149.05;;;138.57;;
52067;SDS011;60237;52.338;21.228;2023-07-29T10:23:27;147.15;;;136.38;;
52067;SDS011;60237;52.338;21.228;2023-07-29T10:26:02;159.10;;;145.95;;
52067;SDS011;60237;52.338;21.228;2023-07-29T10:28:30;146.57;;;136.40;;
52067;SDS011;60237;52.338;21.228;2023-07-29T10:30:57;142.82;;;131.18;;
52067;SDS011;60237;52.338;21.228;2023-07-29T10:33:25;143.70;;;133.02;;
52067;SDS011;60237;52.338;21.228;2023-07-29T10:35:52;150.70;;;140.15;;
52067;SDS011;60237;52.338;21.228;2023-07-29T10:38:23;149.20;;;138.70;;
52067;SDS011;60237;52.338;21.228;2023-07-29T10:40:54;152.00;;;140.68;;
52067;SDS011;60237;52.338;21.228;2023-07-29T10:43:35;153.73;;;142.07;;
52067;SDS011;60237;52.338;21.228;2023-07-29T10:46:19;144.77;;;135.57;;
52067;SDS011;60237;52.338;21.228;2023-07-29T10:53:56;156.18;;;145.52;;
52067;SDS011;60237;52.338;21.228;2023-07-29T10:56:27;145.02;;;135.20;;
52067;SDS011;60237;52.338;21.228;2023-07-29T10:58:58;155.70;;;143.73;;
52067;SDS011;60237;52.338;21.228;2023-07-29T11:01:28;151.57;;;141.38;;
52067;SDS011;60237;52.338;21.228;2023-07-29T11:14:57;153.70;;;143.07;;
52067;SDS011;60237;52.338;21.228;2023-07-29T11:17:23;150.90;;;139.70;;
52067;SDS011;60237;52.338;21.228;2023-07-29T11:19:50;166.60;;;153.48;;
52067;SDS011;60237;52.338;21.228;2023-07-29T11:22:17;152.55;;;140.23;;
52067;SDS011;60237;52.338;21.228;2023-07-29T11:24:44;157.20;;;141.82;;
52067;SDS011;60237;52.338;21.228;2023-07-29T11:27:11;146.75;;;136.48;;
52067;SDS011;60237;52.338;21.228;2023-07-29T11:29:38;151.10;;;141.10;;
52067;SDS011;60237;52.338;21.228;2023-07-29T11:32:04;160.77;;;149.25;;
52067;SDS011;60237;52.338;21.228;2023-07-29T11:34:31;150.20;;;139.48;;
52067;SDS011;60237;52.338;21.228;2023-07-29T11:36:58;159.77;;;146.85;;
52067;SDS011;60237;52.338;21.228;2023-07-29T11:39:25;158.35;;;145.70;;
52067;SDS011;60237;52.338;21.228;2023-07-29T11:41:51;157.95;;;146.48;;
52067;SDS011;60237;52.338;21.228;2023-07-29T11:44:18;163.13;;;151.68;;
52067;SDS011;60237;52.338;21.228;2023-07-29T11:46:44;168.10;;;154.35;;
52067;SDS011;60237;52.338;21.228;2023-07-29T11:49:11;165.40;;;153.30;;
52067;SDS011;60237;52.338;21.228;2023-07-29T11:51:37;172.52;;;155.25;;
52067;SDS011;60237;52.338;21.228;2023-07-29T11:54:04;158.90;;;146.77;;
52067;SDS011;60237;52.338;21.228;2023-07-29T11:56:31;157.77;;;146.10;;
52067;SDS011;60237;52.338;21.228;2023-07-29T11:58:58;149.77;;;139.20;;
52067;SDS011;60237;52.338;21.228;2023-07-29T12:01:25;162.63;;;149.98;;
52067;SDS011;60237;52.338;21.228;2023-07-29T12:03:52;169.73;;;153.57;;
52067;SDS011;60237;52.338;21.228;2023-07-29T12:06:19;159.10;;;147.45;;
52067;SDS011;60237;52.338;21.228;2023-07-29T12:08:46;164.27;;;152.73;;
52067;SDS011;60237;52.338;21.228;2023-07-29T12:11:13;159.48;;;146.95;;
52067;SDS011;60237;52.338;21.228;2023-07-29T12:13:41;158.43;;;147.38;;
52067;SDS011;60237;52.338;21.228;2023-07-29T12:16:08;173.70;;;160.80;;
52067;SDS011;60237;52.338;21.228;2023-07-29T12:18:35;171.05;;;155.77;;
52067;SDS011;60237;52.338;21.228;2023-07-29T12:21:02;168.43;;;156.15;;
52067;SDS011;60237;52.338;21.228;2023-07-29T12:23:29;170.88;;;158.10;;
52067;SDS011;60237;52.338;21.228;2023-07-29T12:25:56;165.35;;;153.23;;
52067;SDS011;60237;52.338;21.228;2023-07-29T12:28:23;170.10;;;156.77;;
52067;SDS011;60237;52.338;21.228;2023-07-29T12:30:54;182.57;;;168.10;;
52067;SDS011;60237;52.338;21.228;2023-07-29T12:33:36;175.27;;;162.10;;
52067;SDS011;60237;52.338;21.228;2023-07-29T12:36:05;198.93;;;184.52;;
52067;SDS011;60237;52.338;21.228;2023-07-29T12:38:31;196.88;;;182.98;;
52067;SDS011;60237;52.338;21.228;2023-07-29T12:40:58;191.52;;;177.32;;
52067;SDS011;60237;52.338;21.228;2023-07-29T12:43:25;192.95;;;177.98;;
52067;SDS011;60237;52.338;21.228;2023-07-29T12:45:52;194.40;;;180.13;;
52067;SDS011;60237;52.338;21.228;2023-07-29T12:48:36;176.95;;;164.73;;
52067;SDS011;60237;52.338;21.228;2023-07-29T12:51:02;191.57;;;176.80;;
52067;SDS011;60237;52.338;21.228;2023-07-29T12:53:29;186.07;;;172.35;;
52067;SDS011;60237;52.338;21.228;2023-07-29T12:55:55;179.25;;;166.00;;
52067;SDS011;60237;52.338;21.228;2023-07-29T12:58:22;178.23;;;165.05;;
52067;SDS011;60237;52.338;21.228;2023-07-29T13:00:49;198.75;;;183.02;;
52067;SDS011;60237;52.338;21.228;2023-07-29T13:03:15;180.60;;;167.25;;
52067;SDS011;60237;52.338;21.228;2023-07-29T13:05:42;180.82;;;167.05;;
52067;SDS011;60237;52.338;21.228;2023-07-29T13:08:09;187.75;;;172.93;;
52067;SDS011;60237;52.338;21.228;2023-07-29T13:10:36;193.02;;;176.20;;
52067;SDS011;60237;52.338;21.228;2023-07-29T13:13:03;197.65;;;182.35;;
52067;SDS011;60237;52.338;21.228;2023-07-29T13:15:30;201.43;;;185.85;;
52067;SDS011;60237;52.338;21.228;2023-07-29T13:17:56;195.60;;;180.55;;
52067;SDS011;60237;52.338;21.228;2023-07-29T13:20:23;199.00;;;183.63;;
52067;SDS011;60237;52.338;21.228;2023-07-29T13:22:50;218.15;;;200.38;;
52067;SDS011;60237;52.338;21.228;2023-07-29T13:25:16;206.95;;;191.55;;
52067;SDS011;60237;52.338;21.228;2023-07-29T13:27:43;207.70;;;188.32;;
52067;SDS011;60237;52.338;21.228;2023-07-29T13:30:10;213.43;;;195.88;;
52067;SDS011;60237;52.338;21.228;2023-07-29T13:32:37;206.93;;;191.25;;
52067;SDS011;60237;52.338;21.228;2023-07-29T13:35:03;221.00;;;202.02;;
52067;SDS011;60237;52.338;21.228;2023-07-29T13:37:30;234.93;;;215.35;;
52067;SDS011;60237;52.338;21.228;2023-07-29T13:39:57;213.70;;;197.90;;
52067;SDS011;60237;52.338;21.228;2023-07-29T13:42:24;211.55;;;196.77;;
52067;SDS011;60237;52.338;21.228;2023-07-29T13:44:51;213.05;;;196.52;;
52067;SDS011;60237;52.338;21.228;2023-07-29T13:47:19;199.50;;;184.43;;
52067;SDS011;60237;52.338;21.228;2023-07-29T13:49:45;222.02;;;204.80;;
52067;SDS011;60237;52.338;21.228;2023-07-29T13:52:13;204.55;;;188.25;;
52067;SDS011;60237;52.338;21.228;2023-07-29T13:54:40;214.18;;;193.70;;
52067;SDS011;60237;52.338;21.228;2023-07-29T13:57:06;207.48;;;192.20;;
52067;SDS011;60237;52.338;21.228;2023-07-29T13:59:33;197.40;;;183.07;;
52067;SDS011;60237;52.338;21.228;2023-07-29T14:02:00;196.52;;;181.63;;
52067;SDS011;60237;52.338;21.228;2023-07-29T14:04:26;195.13;;;180.00;;
52067;SDS011;60237;52.338;21.228;2023-07-29T14:06:53;209.00;;;191.73;;
52067;SDS011;60237;52.338;21.228;2023-07-29T14:09:25;201.90;;;186.52;;